DAL1019 SUMU-SAEZ
Flight info
| Callsign | DAL1019 |
|---|---|
| Flight time | 0h 28m |
| Altitude | 16000 |
| Route | DAGUS UGIMI |
| Aircraft | B738/M-VGDW/C |
Departure
| Time | 2026-05-07 13:54 |
|---|---|
| Airport | Carrasco General Cesáreo L. Berisso International Airport (SUMU) |
Arrival
| Time | 2026-05-07 14:22 |
|---|---|
| Airport | Ezeiza International Airport - Ministro Pistarini (SAEZ) |
| Time | Latitude | Longitude | Altitude | Speed | Heading |
|---|---|---|---|---|---|
| 2026-05-07 13:50 | -34.83439 | -56.01710 | 115 ft | 0 kts | 143° |
| 2026-05-07 13:51 | -34.83447 | -56.01690 | 115 ft | 8 kts | 91° |
| 2026-05-07 13:51 | -34.83388 | -56.01673 | 115 ft | 12 kts | 329° |
| 2026-05-07 13:51 | -34.83307 | -56.01742 | 115 ft | 16 kts | 327° |
| 2026-05-07 13:51 | -34.83224 | -56.01729 | 115 ft | 13 kts | 48° |
| 2026-05-07 13:52 | -34.83156 | -56.01622 | 115 ft | 18 kts | 54° |
| 2026-05-07 13:52 | -34.83079 | -56.01495 | 115 ft | 20 kts | 53° |
| 2026-05-07 13:52 | -34.82994 | -56.01355 | 115 ft | 22 kts | 53° |
| 2026-05-07 13:52 | -34.82896 | -56.01203 | 115 ft | 23 kts | 40° |
| 2026-05-07 13:53 | -34.82755 | -56.01116 | 115 ft | 16 kts | 347° |
| 2026-05-07 13:53 | -34.82706 | -56.01210 | 115 ft | 12 kts | 265° |
| 2026-05-07 13:53 | -34.82809 | -56.01390 | 115 ft | 70 kts | 233° |
| 2026-05-07 13:53 | -34.83354 | -56.02283 | 115 ft | 189 kts | 233° |
| 2026-05-07 13:54 | -34.84245 | -56.03743 | 915 ft | 223 kts | 235° |
| 2026-05-07 13:54 | -34.85345 | -56.05249 | 1738 ft | 244 kts | 224° |
| 2026-05-07 13:54 | -34.86867 | -56.06068 | 2482 ft | 242 kts | 197° |
| 2026-05-07 13:54 | -34.88558 | -56.06413 | 3259 ft | 251 kts | 192° |
| 2026-05-07 13:55 | -34.90284 | -56.06792 | 4011 ft | 250 kts | 195° |
| 2026-05-07 13:55 | -34.91985 | -56.07269 | 4708 ft | 257 kts | 198° |
| 2026-05-07 13:55 | -34.93716 | -56.07860 | 5336 ft | 256 kts | 200° |
| 2026-05-07 13:55 | -34.95399 | -56.08518 | 5956 ft | 258 kts | 202° |
| 2026-05-07 13:56 | -34.97114 | -56.09249 | 6588 ft | 261 kts | 203° |
| 2026-05-07 13:56 | -34.98822 | -56.10017 | 7214 ft | 262 kts | 204° |
| 2026-05-07 13:56 | -35.00535 | -56.10812 | 7841 ft | 265 kts | 204° |
| 2026-05-07 13:56 | -35.02217 | -56.11760 | 8460 ft | 265 kts | 214° |
| 2026-05-07 13:57 | -35.03416 | -56.13408 | 9069 ft | 261 kts | 247° |
| 2026-05-07 13:57 | -35.03780 | -56.15570 | 9740 ft | 264 kts | 268° |
| 2026-05-07 13:57 | -35.03758 | -56.17783 | 10369 ft | 262 kts | 276° |
| 2026-05-07 13:57 | -35.03586 | -56.20066 | 10884 ft | 283 kts | 280° |
| 2026-05-07 13:58 | -35.03338 | -56.22605 | 11404 ft | 327 kts | 281° |
| 2026-05-07 13:58 | -35.03051 | -56.25525 | 11931 ft | 358 kts | 281° |
| 2026-05-07 13:58 | -35.02778 | -56.28535 | 12428 ft | 358 kts | 280° |
| 2026-05-07 13:58 | -35.02522 | -56.31577 | 12935 ft | 362 kts | 280° |
| 2026-05-07 13:59 | -35.02273 | -56.34672 | 13443 ft | 368 kts | 280° |
| 2026-05-07 13:59 | -35.02033 | -56.37772 | 13939 ft | 371 kts | 279° |
| 2026-05-07 13:59 | -35.01796 | -56.40931 | 14450 ft | 373 kts | 279° |
| 2026-05-07 13:59 | -35.01561 | -56.44099 | 14953 ft | 376 kts | 279° |
| 2026-05-07 14:00 | -35.01322 | -56.47312 | 15458 ft | 392 kts | 279° |
| 2026-05-07 14:00 | -35.01059 | -56.50757 | 15861 ft | 420 kts | 279° |
| 2026-05-07 14:00 | -35.00776 | -56.54422 | 15972 ft | 445 kts | 279° |
| 2026-05-07 14:00 | -35.00488 | -56.58198 | 15998 ft | 458 kts | 279° |
| 2026-05-07 14:01 | -35.00194 | -56.62130 | 16001 ft | 465 kts | 279° |
| 2026-05-07 14:01 | -34.99916 | -56.65968 | 16069 ft | 443 kts | 279° |
| 2026-05-07 14:01 | -34.99670 | -56.69588 | 16233 ft | 411 kts | 279° |
| 2026-05-07 14:01 | -34.99438 | -56.73011 | 16408 ft | 397 kts | 279° |
| 2026-05-07 14:02 | -34.99204 | -56.76314 | 16587 ft | 393 kts | 279° |
| 2026-05-07 14:02 | -34.98963 | -56.79603 | 16768 ft | 389 kts | 279° |
| 2026-05-07 14:02 | -34.98713 | -56.82900 | 16952 ft | 386 kts | 280° |
| 2026-05-07 14:02 | -34.98448 | -56.86193 | 17118 ft | 394 kts | 280° |
| 2026-05-07 14:03 | -34.98159 | -56.89539 | 17357 ft | 401 kts | 280° |
| 2026-05-07 14:03 | -34.97866 | -56.92873 | 17602 ft | 394 kts | 281° |
| 2026-05-07 14:03 | -34.97574 | -56.96185 | 17811 ft | 390 kts | 281° |
| 2026-05-07 14:03 | -34.97386 | -56.98284 | 17899 ft | 390 kts | 281° |
| 2026-05-07 14:04 | -34.97234 | -56.99975 | 17949 ft | 390 kts | 281° |
| 2026-05-07 14:04 | -34.96935 | -57.03266 | 17999 ft | 389 kts | 281° |
| 2026-05-07 14:04 | -34.96637 | -57.06524 | 17895 ft | 390 kts | 281° |
| 2026-05-07 14:04 | -34.96337 | -57.09797 | 17954 ft | 385 kts | 281° |
| 2026-05-07 14:05 | -34.96042 | -57.13009 | 17990 ft | 384 kts | 281° |
| 2026-05-07 14:05 | -34.95741 | -57.16265 | 17998 ft | 384 kts | 281° |
| 2026-05-07 14:05 | -34.95442 | -57.19477 | 18000 ft | 383 kts | 281° |
| 2026-05-07 14:05 | -34.95140 | -57.22713 | 18000 ft | 383 kts | 281° |
| 2026-05-07 14:06 | -34.94840 | -57.25925 | 17998 ft | 383 kts | 281° |
| 2026-05-07 14:06 | -34.94534 | -57.29178 | 17847 ft | 385 kts | 281° |
| 2026-05-07 14:06 | -34.94230 | -57.32415 | 17915 ft | 380 kts | 281° |
| 2026-05-07 14:06 | -34.93931 | -57.35600 | 17922 ft | 382 kts | 281° |
| 2026-05-07 14:07 | -34.93622 | -57.38859 | 17496 ft | 383 kts | 281° |
| 2026-05-07 14:07 | -34.93321 | -57.42048 | 17001 ft | 378 kts | 281° |
| 2026-05-07 14:07 | -34.93024 | -57.45186 | 16505 ft | 375 kts | 281° |
| 2026-05-07 14:07 | -34.92724 | -57.48354 | 15919 ft | 374 kts | 281° |
| 2026-05-07 14:08 | -34.92425 | -57.51484 | 15297 ft | 372 kts | 281° |
| 2026-05-07 14:08 | -34.92124 | -57.54617 | 14669 ft | 371 kts | 281° |
| 2026-05-07 14:08 | -34.91823 | -57.57740 | 14041 ft | 369 kts | 281° |
| 2026-05-07 14:08 | -34.91526 | -57.60824 | 13419 ft | 368 kts | 280° |
| 2026-05-07 14:09 | -34.91227 | -57.63912 | 12795 ft | 368 kts | 280° |
| 2026-05-07 14:09 | -34.90926 | -57.67025 | 12164 ft | 367 kts | 280° |
| 2026-05-07 14:09 | -34.90627 | -57.70090 | 11543 ft | 367 kts | 279° |
| 2026-05-07 14:09 | -34.90326 | -57.73164 | 10889 ft | 354 kts | 279° |
| 2026-05-07 14:10 | -34.90045 | -57.76060 | 10253 ft | 333 kts | 278° |
| 2026-05-07 14:10 | -34.89785 | -57.78717 | 9839 ft | 291 kts | 277° |
| 2026-05-07 14:10 | -34.89555 | -57.81063 | 9174 ft | 267 kts | 276° |
| 2026-05-07 14:10 | -34.89337 | -57.83250 | 8543 ft | 256 kts | 275° |
| 2026-05-07 14:11 | -34.89128 | -57.85351 | 7913 ft | 248 kts | 275° |
| 2026-05-07 14:11 | -34.88924 | -57.87423 | 7279 ft | 242 kts | 275° |
| 2026-05-07 14:11 | -34.88727 | -57.89425 | 6700 ft | 237 kts | 275° |
| 2026-05-07 14:11 | -34.88533 | -57.91381 | 6213 ft | 231 kts | 275° |
| 2026-05-07 14:12 | -34.88342 | -57.93324 | 5711 ft | 228 kts | 275° |
| 2026-05-07 14:12 | -34.88154 | -57.95214 | 5307 ft | 223 kts | 275° |
| 2026-05-07 14:12 | -34.87967 | -57.97088 | 4932 ft | 221 kts | 275° |
| 2026-05-07 14:12 | -34.87784 | -57.98928 | 4558 ft | 219 kts | 274° |
| 2026-05-07 14:13 | -34.87601 | -58.00764 | 4272 ft | 215 kts | 273° |
| 2026-05-07 14:13 | -34.87418 | -58.02578 | 4017 ft | 214 kts | 273° |
| 2026-05-07 14:13 | -34.87238 | -58.04377 | 3764 ft | 213 kts | 272° |
| 2026-05-07 14:13 | -34.87061 | -58.06148 | 3522 ft | 213 kts | 272° |
| 2026-05-07 14:14 | -34.86881 | -58.07946 | 3271 ft | 212 kts | 272° |
| 2026-05-07 14:14 | -34.86706 | -58.09702 | 3107 ft | 209 kts | 271° |
| 2026-05-07 14:14 | -34.86529 | -58.11450 | 3017 ft | 207 kts | 271° |
| 2026-05-07 14:14 | -34.86354 | -58.13191 | 3004 ft | 206 kts | 271° |
| 2026-05-07 14:15 | -34.86183 | -58.14905 | 3002 ft | 206 kts | 271° |
| 2026-05-07 14:15 | -34.86009 | -58.16634 | 3013 ft | 202 kts | 271° |
| 2026-05-07 14:15 | -34.85884 | -58.18317 | 3000 ft | 196 kts | 268° |
| 2026-05-07 14:15 | -34.85824 | -58.19944 | 2951 ft | 194 kts | 266° |
| 2026-05-07 14:16 | -34.85795 | -58.21603 | 2738 ft | 195 kts | 266° |
| 2026-05-07 14:16 | -34.85783 | -58.23250 | 2527 ft | 193 kts | 265° |
| 2026-05-07 14:16 | -34.85795 | -58.24855 | 2316 ft | 190 kts | 265° |
| 2026-05-07 14:16 | -34.85815 | -58.25923 | 2192 ft | 189 kts | 264° |
| 2026-05-07 14:17 | -34.85861 | -58.27516 | 2054 ft | 186 kts | 264° |
| 2026-05-07 14:17 | -34.85911 | -58.29057 | 2001 ft | 181 kts | 264° |
| 2026-05-07 14:17 | -34.85933 | -58.30600 | 1995 ft | 182 kts | 268° |
| 2026-05-07 14:17 | -34.85875 | -58.32128 | 2006 ft | 183 kts | 268° |
| 2026-05-07 14:18 | -34.85867 | -58.33696 | 1871 ft | 188 kts | 266° |
| 2026-05-07 14:18 | -34.85866 | -58.35301 | 1670 ft | 190 kts | 269° |
| 2026-05-07 14:18 | -34.85618 | -58.36861 | 1554 ft | 186 kts | 281° |
| 2026-05-07 14:18 | -34.85270 | -58.38324 | 1493 ft | 173 kts | 285° |
| 2026-05-07 14:19 | -34.84923 | -58.39714 | 1492 ft | 170 kts | 286° |
| 2026-05-07 14:19 | -34.84592 | -58.41073 | 1512 ft | 166 kts | 284° |
| 2026-05-07 14:19 | -34.84322 | -58.42428 | 1500 ft | 161 kts | 282° |
| 2026-05-07 14:19 | -34.84066 | -58.43732 | 1405 ft | 156 kts | 282° |
| 2026-05-07 14:20 | -34.83807 | -58.45013 | 1137 ft | 155 kts | 283° |
| 2026-05-07 14:20 | -34.83559 | -58.46230 | 925 ft | 143 kts | 283° |
| 2026-05-07 14:20 | -34.83336 | -58.47376 | 801 ft | 136 kts | 282° |
| 2026-05-07 14:20 | -34.83126 | -58.48506 | 600 ft | 139 kts | 282° |
| 2026-05-07 14:21 | -34.82923 | -58.49637 | 471 ft | 134 kts | 282° |
| 2026-05-07 14:21 | -34.82729 | -58.50747 | 297 ft | 136 kts | 282° |
| 2026-05-07 14:21 | -34.82531 | -58.51881 | 122 ft | 134 kts | 282° |
| 2026-05-07 14:21 | -34.82342 | -58.52927 | 76 ft | 110 kts | 284° |
| 2026-05-07 14:22 | -34.82223 | -58.53573 | 76 ft | 50 kts | 282° |
| 2026-05-07 14:22 | -34.82160 | -58.53922 | 76 ft | 39 kts | 282° |
| 2026-05-07 14:22 | -34.82100 | -58.54255 | 76 ft | 42 kts | 282° |
| 2026-05-07 14:22 | -34.82021 | -58.54537 | 76 ft | 17 kts | 352° |
| 2026-05-07 14:23 | -34.81923 | -58.54476 | 76 ft | 17 kts | 37° |
| 2026-05-07 14:23 | -34.81822 | -58.54383 | 76 ft | 18 kts | 28° |
| 2026-05-07 14:23 | -34.81706 | -58.54339 | 76 ft | 13 kts | 12° |
| 2026-05-07 14:23 | -34.81686 | -58.54334 | 76 ft | 0 kts | 12° |